Time;durP1;ratioP1;P1;durP2;ratioP2;P2;SDS_P1;SDS_P2;PMS_P1;PMS_P2;Temp;Humidity;BMP_temperature;BMP_pressure;BME280_temperature;BME280_humidity;BME280_pressure;Samples;Min_cycle;Max_cycle;Signal;HPM_P1;HPM_P2
2023/09/23 00:00:14;;;;;;;;;;;;;;;6.90;61.67;94812.84;4935070;28;19974;-71
2023/09/23 00:02:39;;;;;;;;;;;;;;;7.45;59.26;94801.38;4937516;28;19958;-71
2023/09/23 00:05:11;;;;;;;;;;;;;;;7.97;58.82;94815.69;4933598;28;19964;-71
2023/09/23 00:07:36;;;;;;;;;;;;;;;7.87;58.87;94812.47;4935426;28;19988;-71
2023/09/23 00:10:05;;;;;;;;;;;;;;;8.04;58.21;94808.66;4960451;28;20515;-71
2023/09/23 00:12:30;;;;;;;;;;;;;;;8.24;57.87;94816.06;4974214;28;20526;-71
2023/09/23 00:14:57;;;;;;;;;;;;;;;7.99;58.58;94818.97;4963371;28;20048;-71
2023/09/23 00:17:22;;;;;;;;;;;;;;;7.36;59.67;94825.28;4964493;28;19974;-71
2023/09/23 00:19:47;;;;;;;;;;;;;;;8.30;57.46;94825.13;4961249;28;20011;-71
2023/09/23 00:22:13;;;;;;;;;;;;;;;7.59;60.00;94824.44;4926621;29;19963;-71
2023/09/23 00:24:38;;;;;;;;;;;;;;;8.16;58.16;94821.47;4917184;29;19986;-71
2023/09/23 00:27:03;;;;;;;;;;;;;;;6.98;60.88;94826.03;4917096;29;20064;-71
2023/09/23 00:29:28;;;;;;;;;;;;;;;7.99;59.00;94824.25;4917816;28;20023;-73
2023/09/23 00:31:54;;;;;;;;;;;;;;;8.16;58.03;94824.91;4917179;28;20006;-73
2023/09/23 00:34:20;;;;;;;;;;;;;;;8.04;58.04;94826.38;4942455;28;20429;-72
2023/09/23 00:36:45;;;;;;;;;;;;;;;7.38;59.23;94833.06;4940540;28;20024;-72
2023/09/23 00:39:10;;;;;;;;;;;;;;;7.91;58.43;94832.28;4939502;28;20500;-73
2023/09/23 00:41:35;;;;;;;;;;;;;;;7.30;59.38;94836.56;4935561;28;20455;-73
2023/09/23 00:44:01;;;;;;;;;;;;;;;7.78;58.93;94836.41;4942915;28;19962;-72
2023/09/23 00:46:26;;;;;;;;;;;;;;;6.60;61.76;94836.50;4941182;28;20060;-72
2023/09/23 00:48:52;;;;;;;;;;;;;;;7.45;59.62;94849.88;4950606;28;20599;-72
2023/09/23 00:51:18;;;;;;;;;;;;;;;7.99;58.46;94842.00;4961271;28;19987;-73
2023/09/23 00:53:44;;;;;;;;;;;;;;;8.02;58.05;94841.63;4966525;28;20472;-73
2023/09/23 00:56:09;;;;;;;;;;;;;;;7.92;58.06;94842.72;4952089;28;20104;-73
2023/09/23 00:58:38;;;;;;;;;;;;;;;8.29;57.19;94848.16;4964721;28;20347;-73
2023/09/23 01:01:09;;;;;;;;;;;;;;;7.52;58.67;94850.81;4972929;28;19987;-74
2023/09/23 01:03:38;;;;;;;;;;;;;;;8.10;57.67;94859.28;4961753;28;20537;-73
2023/09/23 01:06:04;;;;;;;;;;;;;;;8.31;57.40;94847.97;4964826;28;20005;-73
2023/09/23 01:08:29;;;;;;;;;;;;;;;8.22;57.65;94857.84;4955658;28;20306;-73
2023/09/23 01:10:55;;;;;;;;;;;;;;;8.17;57.35;94862.88;4935635;28;19989;-73
2023/09/23 01:13:23;;;;;;;;;;;;;;;7.42;59.61;94858.19;4954037;28;20631;-73
2023/09/23 01:15:49;;;;;;;;;;;;;;;8.09;57.14;94855.00;4967947;28;19958;-73
2023/09/23 01:18:14;;;;;;;;;;;;;;;8.27;56.85;94863.41;4919602;28;20077;-73
2023/09/23 01:20:42;;;;;;;;;;;;;;;7.41;59.17;94861.81;4921847;28;19974;-73
2023/09/23 01:23:11;;;;;;;;;;;;;;;7.69;58.80;94866.59;4923297;28;20495;-73
2023/09/23 01:25:37;;;;;;;;;;;;;;;7.96;58.22;94868.88;4921752;28;20400;-73
2023/09/23 01:28:11;;;;;;;;;;;;;;;7.75;58.35;94865.06;4922778;28;20081;-73
2023/09/23 01:30:36;;;;;;;;;;;;;;;6.88;60.46;94860.63;4924740;28;20353;-74
2023/09/23 01:33:04;;;;;;;;;;;;;;;7.35;59.65;94875.78;4926264;28;20640;-73
2023/09/23 01:35:31;;;;;;;;;;;;;;;7.26;60.21;94880.28;4925399;28;20560;-73
2023/09/23 01:37:57;;;;;;;;;;;;;;;7.39;58.93;94882.38;4950825;28;19980;-73
2023/09/23 01:40:24;;;;;;;;;;;;;;;8.10;57.65;94886.63;4957030;28;20416;-73
2023/09/23 01:42:50;;;;;;;;;;;;;;;6.51;61.81;94883.28;4955678;28;19998;-73
2023/09/23 01:45:16;;;;;;;;;;;;;;;6.91;62.05;94885.94;4953081;28;19978;-73
2023/09/23 01:47:41;;;;;;;;;;;;;;;7.95;58.10;94886.59;4972374;28;20492;-73
2023/09/23 01:50:09;;;;;;;;;;;;;;;8.54;56.49;94898.28;4944396;28;19981;-73
2023/09/23 01:52:34;;;;;;;;;;;;;;;8.37;56.13;94897.63;4949331;28;19978;-73
2023/09/23 01:54:59;;;;;;;;;;;;;;;8.21;56.78;94895.13;4960399;28;19962;-73
2023/09/23 01:57:25;;;;;;;;;;;;;;;7.81;57.60;94892.66;4930809;28;20252;-73
2023/09/23 01:59:50;;;;;;;;;;;;;;;7.98;57.42;94896.00;4919813;29;19968;-73
2023/09/23 02:02:17;;;;;;;;;;;;;;;7.70;58.15;94899.19;4932200;29;20247;-73
2023/09/23 02:04:43;;;;;;;;;;;;;;;7.12;59.67;94903.03;4922251;29;19992;-73
2023/09/23 02:07:10;;;;;;;;;;;;;;;6.25;63.09;94908.09;4933580;29;19965;-73
2023/09/23 02:09:37;;;;;;;;;;;;;;;7.41;59.37;94906.84;4919780;28;20009;-73
2023/09/23 02:12:02;;;;;;;;;;;;;;;6.76;61.31;94913.13;4919484;29;20232;-72
2023/09/23 02:14:29;;;;;;;;;;;;;;;5.70;65.21;94921.88;4922643;29;20423;-73
2023/09/23 02:16:55;;;;;;;;;;;;;;;6.82;60.68;94921.38;4933272;28;20467;-73
2023/09/23 02:19:21;;;;;;;;;;;;;;;7.33;60.01;94913.03;4960352;28;20523;-72
2023/09/23 02:21:47;;;;;;;;;;;;;;;6.88;61.44;94925.97;4963694;28;19972;-72
2023/09/23 02:24:12;;;;;;;;;;;;;;;7.70;58.34;94915.91;4961409;28;20437;-73
2023/09/23 02:26:38;;;;;;;;;;;;;;;7.77;58.03;94931.97;4966357;28;20282;-73
2023/09/23 02:29:04;;;;;;;;;;;;;;;7.38;59.73;94926.56;4965055;28;21015;-73
2023/09/23 02:31:29;;;;;;;;;;;;;;;7.53;58.46;94937.25;4963511;28;20425;-73
2023/09/23 02:33:55;;;;;;;;;;;;;;;7.96;57.06;94935.94;4959510;28;19985;-73
2023/09/23 02:36:20;;;;;;;;;;;;;;;7.92;57.50;94940.78;4961924;28;20077;-73
2023/09/23 02:38:45;;;;;;;;;;;;;;;8.02;56.77;94934.41;4953567;28;20242;-72
2023/09/23 02:41:10;;;;;;;;;;;;;;;7.79;57.41;94948.53;4963158;28;19990;-72
2023/09/23 02:43:37;;;;;;;;;;;;;;;6.46;61.21;94959.66;4960722;28;20014;-73
2023/09/23 02:46:02;;;;;;;;;;;;;;;7.36;58.95;94949.75;4950835;28;20319;-72
2023/09/23 02:48:28;;;;;;;;;;;;;;;6.79;60.06;94959.56;4957987;28;19981;-73
2023/09/23 02:50:54;;;;;;;;;;;;;;;6.89;59.89;94957.56;4965688;28;20008;-72
2023/09/23 02:53:19;;;;;;;;;;;;;;;7.60;58.04;94949.75;4970482;28;20361;-72
2023/09/23 02:55:51;;;;;;;;;;;;;;;7.66;57.92;94960.47;4959483;28;20063;-73
2023/09/23 02:58:17;;;;;;;;;;;;;;;7.62;57.73;94959.19;4937521;28;20490;-73
2023/09/23 03:00:56;;;;;;;;;;;;;;;7.91;56.53;94968.31;4931393;28;19989;-72
2023/09/23 03:03:22;;;;;;;;;;;;;;;7.77;57.29;94959.28;4919251;29;20016;-72
2023/09/23 03:05:54;;;;;;;;;;;;;;;7.59;57.41;94966.66;4932189;28;19980;-72
2023/09/23 03:08:22;;;;;;;;;;;;;;;7.37;58.19;94963.78;4928135;28;19991;-72
2023/09/23 03:10:49;;;;;;;;;;;;;;;5.96;62.92;94975.53;4918487;29;19995;-73
2023/09/23 03:13:14;;;;;;;;;;;;;;;7.44;58.58;94974.53;4917919;29;19984;-73
2023/09/23 03:16:07;;;;;;;;;;;;;;;6.50;61.49;94985.59;4924666;29;20698;-72
2023/09/23 03:18:33;;;;;;;;;;;;;;;6.99;59.17;94986.47;4920534;29;20505;-72
2023/09/23 03:21:08;;;;;;;;;;;;;;;7.50;58.00;94987.06;4928445;29;19975;-72
2023/09/23 03:23:35;;;;;;;;;;;;;;;7.66;58.02;94988.81;4921499;28;20362;-72
2023/09/23 03:26:00;;;;;;;;;;;;;;;7.60;57.78;94992.16;4918672;28;20076;-73
2023/09/23 03:28:25;;;;;;;;;;;;;;;6.23;62.64;95006.06;4927009;28;20087;-72
2023/09/23 03:30:57;;;;;;;;;;;;;;;7.21;59.03;95002.59;4960813;28;20032;-72
2023/09/23 03:33:23;;;;;;;;;;;;;;;7.41;58.31;94999.53;4965574;28;20348;-72
2023/09/23 03:35:49;;;;;;;;;;;;;;;7.48;58.08;95004.97;4957600;28;20522;-73
2023/09/23 03:38:15;;;;;;;;;;;;;;;7.53;57.19;95003.47;4957221;28;20260;-73
2023/09/23 03:40:40;;;;;;;;;;;;;;;7.61;58.25;95001.75;4956608;28;19981;-73
2023/09/23 03:43:05;;;;;;;;;;;;;;;6.08;61.51;95015.66;4966707;28;19987;-72
2023/09/23 03:45:34;;;;;;;;;;;;;;;6.74;60.84;95009.53;4957784;28;20597;-72
2023/09/23 03:47:59;;;;;;;;;;;;;;;6.69;61.01;95006.56;4963094;28;19965;-72
2023/09/23 03:50:24;;;;;;;;;;;;;;;7.32;58.70;94997.94;4953655;28;19974;-73
2023/09/23 03:52:51;;;;;;;;;;;;;;;7.35;58.20;95002.88;4967060;28;19982;-73
2023/09/23 03:55:18;;;;;;;;;;;;;;;7.68;57.84;95008.00;4962956;28;19962;-73
2023/09/23 03:57:44;;;;;;;;;;;;;;;7.17;58.07;95003.94;4953002;28;20114;-72
2023/09/23 04:00:16;;;;;;;;;;;;;;;7.57;58.03;95011.88;4951816;28;20000;-71
2023/09/23 04:02:41;;;;;;;;;;;;;;;7.92;57.07;95008.88;4968224;28;19992;-71
2023/09/23 04:05:07;;;;;;;;;;;;;;;8.00;56.73;95013.31;4952323;28;20085;-71
2023/09/23 04:07:32;;;;;;;;;;;;;;;8.08;56.90;95013.25;4947940;28;20422;-71
2023/09/23 04:09:57;;;;;;;;;;;;;;;7.88;56.42;95016.34;4963704;28;20061;-71
2023/09/23 04:12:23;;;;;;;;;;;;;;;7.58;58.05;95020.66;4965353;28;20033;-71
2023/09/23 04:14:49;;;;;;;;;;;;;;;7.65;57.65;95021.63;4965814;28;19965;-71
2023/09/23 04:17:15;;;;;;;;;;;;;;;7.87;57.22;95032.44;4968375;28;19975;-71
2023/09/23 04:19:40;;;;;;;;;;;;;;;8.11;56.10;95030.63;4962451;28;20060;-72
2023/09/23 04:22:05;;;;;;;;;;;;;;;8.19;55.97;95030.56;4933155;28;19981;-71
2023/09/23 04:24:31;;;;;;;;;;;;;;;5.76;63.93;95038.41;4920492;28;20744;-71
2023/09/23 04:26:56;;;;;;;;;;;;;;;6.60;61.51;95040.16;4923130;29;20547;-72
2023/09/23 04:29:21;;;;;;;;;;;;;;;7.52;58.38;95044.16;4922932;29;20786;-72
2023/09/23 04:31:46;;;;;;;;;;;;;;;7.70;58.41;95047.56;4925345;29;20316;-72
2023/09/23 04:34:13;;;;;;;;;;;;;;;8.03;56.87;95042.91;4923675;28;20413;-72
2023/09/23 04:36:38;;;;;;;;;;;;;;;7.92;57.84;95048.63;4924476;29;20030;-72
2023/09/23 04:39:06;;;;;;;;;;;;;;;7.47;57.44;95049.16;4924939;28;20089;-72
2023/09/23 04:41:31;;;;;;;;;;;;;;;7.32;57.84;95056.19;4925261;28;20027;-71
2023/09/23 04:43:57;;;;;;;;;;;;;;;8.22;56.73;95051.41;4926057;28;19959;-71
2023/09/23 04:46:23;;;;;;;;;;;;;;;8.39;55.85;95057.44;4923107;28;19976;-72
2023/09/23 04:48:48;;;;;;;;;;;;;;;8.46;56.10;95052.22;4919719;29;20071;-72
2023/09/23 04:51:14;;;;;;;;;;;;;;;8.28;55.87;95060.50;4921811;29;19985;-72
2023/09/23 04:53:39;;;;;;;;;;;;;;;8.83;54.46;95057.72;4927531;28;20455;-72
2023/09/23 04:56:16;;;;;;;;;;;;;;;8.97;53.84;95061.41;4922060;28;19995;-72
2023/09/23 04:58:41;;;;;;;;;;;;;;;8.15;56.17;95072.53;4925280;29;19960;-72
2023/09/23 05:01:07;;;;;;;;;;;;;;;8.10;56.80;95072.22;4914963;29;19979;-72
2023/09/23 05:03:33;;;;;;;;;;;;;;;8.12;55.81;95078.16;4917007;29;19966;-71
2023/09/23 05:05:58;;;;;;;;;;;;;;;8.39;56.53;95080.47;4926076;29;20447;-72
2023/09/23 05:08:23;;;;;;;;;;;;;;;8.34;56.16;95088.13;4916638;29;19978;-71
2023/09/23 05:10:49;;;;;;;;;;;;;;;8.69;54.69;95093.84;4935855;28;19980;-73
2023/09/23 05:13:17;;;;;;;;;;;;;;;8.56;56.50;95089.13;4916721;29;19983;-73
2023/09/23 05:15:43;;;;;;;;;;;;;;;8.60;55.10;95102.88;4917013;29;20212;-73
2023/09/23 05:18:08;;;;;;;;;;;;;;;8.73;55.04;95102.25;4916463;29;20618;-73
2023/09/23 05:20:34;;;;;;;;;;;;;;;8.93;54.97;95113.19;4919193;28;20066;-73
2023/09/23 05:23:05;;;;;;;;;;;;;;;9.04;55.06;95117.28;4929757;29;20364;-73
2023/09/23 05:25:31;;;;;;;;;;;;;;;9.01;53.81;95118.47;4920088;29;19975;-73
2023/09/23 05:27:57;;;;;;;;;;;;;;;9.05;55.54;95122.41;4920072;29;19955;-73
2023/09/23 05:30:22;;;;;;;;;;;;;;;9.14;53.33;95130.28;4920546;29;19980;-73
2023/09/23 05:32:48;;;;;;;;;;;;;;;9.19;52.82;95134.06;4934259;28;20353;-73
2023/09/23 05:35:13;;;;;;;;;;;;;;;9.40;52.67;95127.22;4919676;29;20051;-73
2023/09/23 05:37:43;;;;;;;;;;;;;;;9.24;52.59;95130.88;4923409;29;20022;-73
2023/09/23 05:40:30;;;;;;;;;;;;;;;9.22;52.92;95132.06;4925613;29;19954;-73
2023/09/23 05:42:54;;;;;;;;;;;;;;;9.03;53.67;95131.56;4924746;28;19964;-73
2023/09/23 05:45:24;;;;;;;;;;;;;;;8.70;54.86;95140.59;4919994;29;20023;-73
2023/09/23 05:47:49;;;;;;;;;;;;;;;8.52;55.18;95143.56;4920066;29;20193;-73
2023/09/23 05:50:15;;;;;;;;;;;;;;;8.51;56.52;95152.53;4932106;28;20520;-73
2023/09/23 05:52:40;;;;;;;;;;;;;;;8.98;54.51;95160.50;4921627;29;19969;-73
2023/09/23 05:55:06;;;;;;;;;;;;;;;8.80;54.41;95159.75;4929917;28;19949;-73
2023/09/23 05:57:34;;;;;;;;;;;;;;;9.24;53.38;95164.59;4930022;28;20428;-73
2023/09/23 06:00:00;;;;;;;;;;;;;;;9.03;53.80;95176.69;4926252;28;19961;-73
2023/09/23 06:02:25;;;;;;;;;;;;;;;9.06;54.04;95173.69;4924786;28;19968;-73
2023/09/23 06:04:50;;;;;;;;;;;;;;;8.43;55.07;95183.41;4923513;29;19981;-73
2023/09/23 06:07:15;;;;;;;;;;;;;;;8.66;55.17;95187.06;4927647;28;20144;-73
2023/09/23 06:09:44;;;;;;;;;;;;;;;8.32;56.03;95189.09;4947111;28;20260;-73
2023/09/23 06:12:10;;;;;;;;;;;;;;;8.70;55.28;95196.31;4966813;28;19986;-73
2023/09/23 06:14:35;;;;;;;;;;;;;;;8.14;55.71;95202.63;4970641;28;20386;-73
2023/09/23 06:17:00;;;;;;;;;;;;;;;8.69;55.28;95203.47;4954749;28;20395;-73
2023/09/23 06:19:25;;;;;;;;;;;;;;;8.94;54.70;95213.06;4960804;28;19949;-73
2023/09/23 06:21:51;;;;;;;;;;;;;;;8.42;56.36;95220.72;4956930;28;19975;-74
2023/09/23 06:24:16;;;;;;;;;;;;;;;8.87;54.20;95226.25;4965552;28;20294;-74
2023/09/23 06:26:41;;;;;;;;;;;;;;;8.89;54.11;95220.75;4965265;28;19967;-74
2023/09/23 06:29:09;;;;;;;;;;;;;;;9.25;53.72;95217.50;4961362;28;19980;-74
2023/09/23 06:31:34;;;;;;;;;;;;;;;9.23;53.81;95211.56;4966121;28;20399;-74
2023/09/23 06:33:59;;;;;;;;;;;;;;;8.87;54.24;95223.59;4966668;28;20125;-74
2023/09/23 06:36:24;;;;;;;;;;;;;;;9.31;52.92;95219.47;4965058;28;20307;-74
2023/09/23 06:38:50;;;;;;;;;;;;;;;9.20;53.37;95223.38;4957958;28;20320;-74
2023/09/23 06:41:15;;;;;;;;;;;;;;;9.39;53.40;95221.19;4951880;28;20024;-74
2023/09/23 06:43:40;;;;;;;;;;;;;;;9.66;52.17;95226.13;4945077;28;20227;-74
2023/09/23 06:46:06;;;;;;;;;;;;;;;9.71;52.42;95224.56;4957510;28;20596;-74
2023/09/23 06:48:32;;;;;;;;;;;;;;;8.35;55.07;95235.66;4964072;28;19972;-74
2023/09/23 06:51:00;;;;;;;;;;;;;;;8.99;54.05;95225.84;4956766;28;20007;-74
2023/09/23 06:53:26;;;;;;;;;;;;;;;9.09;53.40;95234.41;4937120;28;19973;-74
2023/09/23 06:55:51;;;;;;;;;;;;;;;9.39;53.71;95231.03;4918964;29;20019;-74
2023/09/23 06:58:17;;;;;;;;;;;;;;;8.49;55.48;95253.50;4954830;28;20339;-74
2023/09/23 07:00:42;;;;;;;;;;;;;;;8.86;54.21;95248.50;4958716;28;20014;-74
2023/09/23 07:03:07;;;;;;;;;;;;;;;8.86;54.31;95260.91;4966760;28;20249;-73
2023/09/23 07:05:34;;;;;;;;;;;;;;;8.99;54.57;95263.88;4971916;28;20068;-81
2023/09/23 07:07:59;;;;;;;;;;;;;;;9.96;51.58;95255.34;4962738;28;19992;-81
2023/09/23 07:10:25;;;;;;;;;;;;;;;8.62;54.72;95276.00;4963637;28;19963;-81
2023/09/23 07:12:50;;;;;;;;;;;;;;;9.52;53.04;95265.75;4967903;28;19971;-80
2023/09/23 07:15:15;;;;;;;;;;;;;;;10.04;51.56;95265.94;4970138;28;19955;-80
2023/09/23 07:17:40;;;;;;;;;;;;;;;10.15;50.88;95271.81;4971939;28;20015;-80
2023/09/23 07:20:06;;;;;;;;;;;;;;;9.51;51.93;95264.13;5099240;23;21493;-80
2023/09/23 07:22:34;;;;;;;;;;;;;;;10.10;51.33;95277.72;4986268;28;20509;-80
2023/09/23 07:25:00;;;;;;;;;;;;;;;9.06;53.43;95280.75;4980938;28;19966;-80
2023/09/23 07:27:25;;;;;;;;;;;;;;;9.18;52.89;95286.47;4988232;28;20233;-80
2023/09/23 07:29:50;;;;;;;;;;;;;;;9.65;52.21;95288.28;4984679;28;19997;-80
2023/09/23 07:32:16;;;;;;;;;;;;;;;9.31;52.71;95293.84;4978876;28;19988;-82
2023/09/23 07:34:41;;;;;;;;;;;;;;;9.03;53.93;95297.03;4971106;28;19955;-83
2023/09/23 07:37:08;;;;;;;;;;;;;;;9.49;52.60;95308.66;4962106;28;20078;-83
2023/09/23 07:39:33;;;;;;;;;;;;;;;8.78;54.25;95314.91;4958735;28;20038;-83
2023/09/23 07:41:58;;;;;;;;;;;;;;;9.51;52.59;95311.13;4966126;28;20282;-83
2023/09/23 07:44:23;;;;;;;;;;;;;;;9.59;53.20;95322.50;4975185;28;19978;-81
2023/09/23 07:46:49;;;;;;;;;;;;;;;8.94;54.00;95330.72;4969745;28;20403;-83
2023/09/23 07:49:14;;;;;;;;;;;;;;;9.71;52.34;95328.25;4968165;28;20056;-82
2023/09/23 07:51:40;;;;;;;;;;;;;;;9.41;51.97;95337.94;4969765;28;20283;-83
2023/09/23 07:54:05;;;;;;;;;;;;;;;8.63;54.46;95343.97;4983877;28;20732;-81
2023/09/23 07:56:30;;;;;;;;;;;;;;;8.61;54.73;95338.03;4981055;28;19975;-85
2023/09/23 07:58:56;;;;;;;;;;;;;;;8.76;54.67;95346.09;4989263;28;20020;-81
2023/09/23 08:01:21;;;;;;;;;;;;;;;8.15;55.85;95358.06;4983419;28;20481;-84
2023/09/23 08:03:46;;;;;;;;;;;;;;;7.99;56.58;95353.63;4997632;28;20016;-83
2023/09/23 08:06:11;;;;;;;;;;;;;;;8.51;55.68;95365.63;4982104;28;19976;-81
2023/09/23 08:08:37;;;;;;;;;;;;;;;8.76;55.30;95365.50;4987684;28;20363;-83
2023/09/23 08:11:02;;;;;;;;;;;;;;;8.61;55.78;95361.91;4983415;28;20660;-83
2023/09/23 08:13:28;;;;;;;;;;;;;;;9.58;53.73;95363.38;4981139;28;20028;-82
2023/09/23 08:15:56;;;;;;;;;;;;;;;9.42;53.30;95361.66;4983114;28;19966;-84
2023/09/23 08:18:22;;;;;;;;;;;;;;;9.69;52.58;95379.94;4994194;28;20074;-83
2023/09/23 08:20:47;;;;;;;;;;;;;;;8.89;53.57;95390.66;4987396;28;20209;-83
2023/09/23 08:23:12;;;;;;;;;;;;;;;9.54;53.02;95380.69;4990984;28;20015;-81
2023/09/23 08:25:38;;;;;;;;;;;;;;;9.58;51.91;95386.47;4969786;28;19978;-81
2023/09/23 08:28:03;;;;;;;;;;;;;;;8.85;54.50;95392.00;4979395;28;19967;-81
2023/09/23 08:30:29;;;;;;;;;;;;;;;9.53;52.90;95383.53;4962946;28;20055;-80
2023/09/23 08:32:55;;;;;;;;;;;;;;;9.39;53.51;95398.41;4989969;28;19970;-83
2023/09/23 08:35:20;;;;;;;;;;;;;;;9.40;53.20;95402.72;4987863;28;20011;-84
2023/09/23 08:37:45;;;;;;;;;;;;;;;9.36;53.39;95393.44;4983207;28;20072;-81
2023/09/23 08:40:11;;;;;;;;;;;;;;;9.73;52.58;95394.53;4985168;28;20463;-80
2023/09/23 08:42:38;;;;;;;;;;;;;;;9.55;51.89;95397.44;4984812;28;19951;-80
2023/09/23 08:45:04;;;;;;;;;;;;;;;9.74;52.38;95398.81;4975712;28;19976;-79
2023/09/23 08:47:29;;;;;;;;;;;;;;;9.69;52.56;95407.31;4980934;28;20405;-79
2023/09/23 08:49:54;;;;;;;;;;;;;;;9.63;52.47;95413.38;4982094;28;20043;-79
2023/09/23 08:52:20;;;;;;;;;;;;;;;10.41;51.16;95398.25;4986421;28;19983;-79
2023/09/23 08:54:46;;;;;;;;;;;;;;;10.05;51.20;95410.38;4989852;28;20371;-80
2023/09/23 08:57:11;;;;;;;;;;;;;;;10.06;51.10;95409.38;4983917;28;20523;-80
2023/09/23 08:59:36;;;;;;;;;;;;;;;10.71;49.46;95409.75;4973744;28;19994;-79
2023/09/23 09:02:03;;;;;;;;;;;;;;;10.46;50.10;95404.69;4981824;28;20017;-79
2023/09/23 09:04:28;;;;;;;;;;;;;;;10.54;50.69;95403.75;4995489;28;19975;-80
2023/09/23 09:06:54;;;;;;;;;;;;;;;11.16;48.31;95406.25;5004000;28;19969;-79
2023/09/23 09:09:19;;;;;;;;;;;;;;;10.32;50.88;95411.66;4994895;28;20021;-80
2023/09/23 09:11:48;;;;;;;;;;;;;;;11.30;48.38;95407.22;4990295;28;19996;-79
2023/09/23 09:14:14;;;;;;;;;;;;;;;11.45;47.98;95409.84;4991985;28;19970;-79
2023/09/23 09:16:39;;;;;;;;;;;;;;;11.59;47.44;95412.66;4983466;28;20036;-79
2023/09/23 09:19:05;;;;;;;;;;;;;;;11.51;47.21;95414.44;4991382;28;19944;-79
2023/09/23 09:21:31;;;;;;;;;;;;;;;11.60;47.45;95415.09;4977208;28;19999;-79
2023/09/23 09:23:57;;;;;;;;;;;;;;;11.07;48.44;95418.81;4964607;28;20438;-79
2023/09/23 09:26:22;;;;;;;;;;;;;;;11.34;47.20;95411.16;4991606;28;19937;-79
2023/09/23 09:28:47;;;;;;;;;;;;;;;11.52;47.63;95415.22;4981377;28;19963;-79
2023/09/23 09:31:12;;;;;;;;;;;;;;;10.92;49.27;95423.31;4990744;28;19964;-79
2023/09/23 09:33:38;;;;;;;;;;;;;;;10.95;49.32;95414.97;4969211;28;20035;-79
2023/09/23 09:36:04;;;;;;;;;;;;;;;11.15;48.00;95411.75;4991458;28;19955;-79
2023/09/23 09:38:29;;;;;;;;;;;;;;;10.95;47.99;95429.09;4990966;28;19948;-79
2023/09/23 09:41:02;;;;;;;;;;;;;;;10.86;48.75;95423.06;4998540;28;20439;-79
2023/09/23 09:43:28;;;;;;;;;;;;;;;11.36;48.39;95422.44;4990832;28;19955;-79
2023/09/23 09:45:53;;;;;;;;;;;;;;;10.83;47.91;95436.75;4997177;28;19979;-79
2023/09/23 09:48:18;;;;;;;;;;;;;;;10.00;51.40;95434.84;4995772;28;19999;-79
2023/09/23 09:50:45;;;;;;;;;;;;;;;10.49;49.29;95430.13;4990861;28;19960;-82
2023/09/23 09:53:12;;;;;;;;;;;;;;;10.16;48.51;95438.41;4989600;28;20015;-80
2023/09/23 09:55:38;;;;;;;;;;;;;;;11.07;48.55;95439.28;4973268;28;20223;-84
2023/09/23 09:58:03;;;;;;;;;;;;;;;10.96;47.83;95438.75;4996399;28;19962;-83
2023/09/23 10:00:30;;;;;;;;;;;;;;;11.59;47.05;95450.78;5001924;28;19970;-83
2023/09/23 10:03:00;;;;;;;;;;;;;;;11.42;47.02;95444.06;4985156;28;19943;-82
2023/09/23 10:05:31;;;;;;;;;;;;;;;11.81;46.46;95444.66;4988581;28;20530;-84
2023/09/23 10:07:56;;;;;;;;;;;;;;;11.07;48.01;95441.94;4986105;28;19965;-80
2023/09/23 10:10:48;;;;;;;;;;;;;;;10.85;48.08;95453.34;4982664;28;19975;-80
2023/09/23 10:13:14;;;;;;;;;;;;;;;10.66;49.33;95440.59;4979935;28;20025;-81
2023/09/23 10:15:40;;;;;;;;;;;;;;;10.19;50.78;95441.53;4987714;28;19945;-82
2023/09/23 10:18:13;;;;;;;;;;;;;;;10.09;50.96;95433.81;4988946;28;19969;-79
2023/09/23 10:20:42;;;;;;;;;;;;;;;10.94;48.03;95442.59;4983160;28;19983;-80
2023/09/23 10:23:08;;;;;;;;;;;;;;;11.64;47.32;95443.06;4977611;28;20002;-82
2023/09/23 10:25:37;;;;;;;;;;;;;;;11.29;46.88;95426.88;4966472;28;20318;-83
2023/09/23 10:28:03;;;;;;;;;;;;;;;11.58;47.04;95446.47;4989350;28;20046;-83
2023/09/23 10:30:29;;;;;;;;;;;;;;;11.75;46.48;95463.06;4995677;28;20016;-81
2023/09/23 10:32:54;;;;;;;;;;;;;;;10.38;48.83;95455.34;4996150;28;19964;-81
2023/09/23 10:35:23;;;;;;;;;;;;;;;11.66;46.37;95450.06;5000009;28;19991;-81
2023/09/23 10:37:48;;;;;;;;;;;;;;;12.04;45.68;95460.47;4992602;28;19974;-82
2023/09/23 10:40:14;;;;;;;;;;;;;;;11.05;47.14;95466.09;4987253;28;19962;-79
2023/09/23 10:42:41;;;;;;;;;;;;;;;12.01;46.54;95463.53;4985975;28;19953;-81
2023/09/23 10:45:06;;;;;;;;;;;;;;;11.42;46.46;95462.72;4978701;28;20344;-83
2023/09/23 10:47:32;;;;;;;;;;;;;;;11.00;47.00;95468.50;4990856;28;19958;-83
2023/09/23 10:49:58;;;;;;;;;;;;;;;11.41;46.82;95479.69;4980062;28;19979;-83
2023/09/23 10:52:23;;;;;;;;;;;;;;;10.58;47.77;95476.13;4988480;28;20578;-82
2023/09/23 10:54:48;;;;;;;;;;;;;;;12.48;44.11;95466.59;5003895;28;19938;-83
2023/09/23 10:57:13;;;;;;;;;;;;;;;11.58;45.12;95464.31;4989544;28;19970;-80
2023/09/23 10:59:39;;;;;;;;;;;;;;;12.06;45.07;95474.47;5015599;28;19933;-80
2023/09/23 11:02:05;;;;;;;;;;;;;;;12.46;44.06;95468.66;4999186;28;19961;-79
2023/09/23 11:04:30;;;;;;;;;;;;;;;11.89;45.08;95477.38;4983738;28;20273;-79
2023/09/23 11:06:56;;;;;;;;;;;;;;;12.21;45.11;95484.25;4972418;28;19947;-80
2023/09/23 11:09:22;;;;;;;;;;;;;;;12.38;44.97;95471.47;4985919;28;19990;-79
2023/09/23 11:11:47;;;;;;;;;;;;;;;12.42;44.17;95481.56;4984791;28;19977;-79
2023/09/23 11:14:13;;;;;;;;;;;;;;;12.86;43.93;95473.47;4979861;28;19967;-79
2023/09/23 11:16:41;;;;;;;;;;;;;;;13.68;41.04;95483.53;4993033;28;19958;-80
2023/09/23 11:19:07;;;;;;;;;;;;;;;13.41;42.03;95493.28;4978240;28;20493;-79
2023/09/23 11:21:40;;;;;;;;;;;;;;;13.05;41.98;95479.97;4982111;28;19969;-79
2023/09/23 11:24:07;;;;;;;;;;;;;;;13.18;42.23;95489.06;4979174;28;19937;-79
2023/09/23 11:26:32;;;;;;;;;;;;;;;13.51;42.22;95499.09;4986060;28;20448;-79
2023/09/23 11:28:57;;;;;;;;;;;;;;;12.26;45.32;95492.50;4977143;28;20200;-79
2023/09/23 11:31:24;;;;;;;;;;;;;;;13.55;43.12;95491.50;4983584;28;20045;-79
2023/09/23 11:33:49;;;;;;;;;;;;;;;12.93;42.28;95500.22;4978143;28;19997;-79
2023/09/23 11:36:14;;;;;;;;;;;;;;;14.18;40.62;95501.16;4987474;28;20252;-79
2023/09/23 11:38:39;;;;;;;;;;;;;;;14.51;39.54;95504.88;4985544;28;19979;-79
2023/09/23 11:41:05;;;;;;;;;;;;;;;14.52;38.76;95505.72;4970504;28;19952;-80
2023/09/23 11:43:30;;;;;;;;;;;;;;;13.56;40.70;95519.88;4991584;28;20225;-79
2023/09/23 11:45:55;;;;;;;;;;;;;;;13.82;40.57;95513.81;4988888;28;19991;-79
2023/09/23 11:48:20;;;;;;;;;;;;;;;13.35;42.09;95513.63;4968697;28;19965;-79
2023/09/23 11:50:46;;;;;;;;;;;;;;;13.77;41.26;95518.94;4976481;28;20254;-78
2023/09/23 11:53:13;;;;;;;;;;;;;;;11.84;45.16;95511.81;4986116;28;20487;-79
2023/09/23 11:55:38;;;;;;;;;;;;;;;13.27;41.92;95511.13;4998307;28;19937;-80
2023/09/23 11:58:03;;;;;;;;;;;;;;;13.39;41.82;95514.88;4974458;28;20413;-80
2023/09/23 12:00:29;;;;;;;;;;;;;;;12.47;43.72;95510.34;4994177;28;19971;-79
2023/09/23 12:02:54;;;;;;;;;;;;;;;13.04;43.80;95518.41;4992585;28;20505;-79
2023/09/23 12:05:20;;;;;;;;;;;;;;;12.42;44.38;95521.59;4994950;28;19965;-80
2023/09/23 12:07:45;;;;;;;;;;;;;;;12.73;43.65;95513.41;4985891;28;19941;-80
2023/09/23 12:10:13;;;;;;;;;;;;;;;11.67;45.13;95523.69;4991517;28;20011;-79
2023/09/23 12:12:38;;;;;;;;;;;;;;;11.98;45.20;95519.94;4989504;28;19966;-78
2023/09/23 12:15:04;;;;;;;;;;;;;;;12.90;44.44;95520.13;4974010;28;19955;-78
2023/09/23 12:17:29;;;;;;;;;;;;;;;11.83;45.53;95531.47;4985227;28;19962;-78
2023/09/23 12:19:55;;;;;;;;;;;;;;;11.93;45.58;95527.69;4989056;28;20488;-78
2023/09/23 12:22:20;;;;;;;;;;;;;;;11.66;46.29;95535.38;4959822;28;20568;-79
2023/09/23 12:24:45;;;;;;;;;;;;;;;11.53;45.47;95531.53;4982566;28;20248;-78
2023/09/23 12:27:11;;;;;;;;;;;;;;;12.23;44.34;95530.25;4978759;28;19953;-78
2023/09/23 12:29:36;;;;;;;;;;;;;;;11.41;45.47;95533.00;4963251;28;19978;-78
2023/09/23 12:32:02;;;;;;;;;;;;;;;11.39;45.90;95536.69;4981524;28;20022;-78
2023/09/23 12:34:28;;;;;;;;;;;;;;;11.43;46.24;95531.84;4955580;28;19956;-78
2023/09/23 12:36:53;;;;;;;;;;;;;;;11.35;46.05;95553.22;4987741;28;20554;-77
2023/09/23 12:39:18;;;;;;;;;;;;;;;11.98;44.13;95541.28;4993432;28;19951;-78
2023/09/23 12:41:43;;;;;;;;;;;;;;;12.83;43.03;95547.81;4957052;28;19963;-77
2023/09/23 12:44:09;;;;;;;;;;;;;;;13.02;42.98;95562.38;4970985;28;19946;-78
2023/09/23 12:46:34;;;;;;;;;;;;;;;13.52;39.12;95559.59;4978156;28;19942;-78